Observations

BIA Manual Entry


Date Temp Humidity Rainfall Dew Point Wind Direction Wind Speed Wind Pressure Condition Visibility
2025-03-15 00:02:13 28 87 0.00 26 020 11.4 1011 Lightning 10 km
2025-03-14 23:02:51 29 85 0.00 26 020 17.1 1011 Lightning 10 km
2025-03-14 21:59:56 29 83 0.00 26 040 13.3 1011 Partly Cloudy (Night) 10 km
2025-03-14 21:00:00 29 83 0.0 26 020 13.3 1010 Cloudy 10KM
2025-03-14 20:03:02 29 81 0.0 25 010 13.3 1010 Cloudy 10KM
2025-03-14 19:00:16 29 81 0.0 25 010 17.1 1009 Partly Cloudy (Day) 10KM
2025-03-14 18:00:50 30 74 0.0 24 030 20.9 1008 Partly Cloudy (Day) 10KM
2025-03-14 17:02:18 30 73 25 030 20.9 1007 Partly Cloudy (Day) 20 km
2025-03-14 16:01:31 31 69 24 360 17.1 1008 Partly Cloudy (Day) 20 km
2025-03-14 15:02:11 31 64 23 350 20.9 1008 Partly Cloudy (Day) 20 km
2025-03-14 13:59:50 31 64 24 350 17.1 1009 Partly Cloudy (Day) 20 km
2025-03-14 12:59:12 32 64 24 360 15.2 1010 Partly Cloudy (Day) 20 km
2025-03-14 12:03:45 32 55 0.00 23 020 19 1010 Partly Cloudy (Day) 10 KM
2025-03-14 11:02:21 31 67 0.00 24 110 13.3 1011 Partly Cloudy (Day) 10 km
2025-03-14 10:02:55 31 67 24 060 9.5 1011 Distant showers 10 km
2025-03-14 09:00:23 29 76 25 040 9.5 1011 Distant showers 10 km
2025-03-14 08:00:45 27 90 0.00 25 200 3.8 1011 Partly Cloudy (Day) 15KM
2025-03-14 06:58:34 26 95 0.00 25 180 5.7 1010 Mist 10KM
2025-03-14 05:59:39 26 95 0.00 25 040 1.9 1009 Mist 10KM
2025-03-14 05:58:59 95 040 1. Partly Cloudy (Night)
2025-03-14 04:58:51 26 94 0.00 25 180 1.9 1009 Partly Cloudy (Night) 10KM
2025-03-14 03:59:27 27 92 0.00 25 190 5.7 1009 Partly Cloudy (Night) 10KM
2025-03-14 02:59:03 27 89 0.00 25 200 1.9 1009 Partly Cloudy (Night) 10KM
2025-03-14 01:59:05 27 91 25 160 5.7 1009 Partly Cloudy (Night) 10 KM
2025-03-14 00:58:41 27 86 25 040 3.8 1010 Partly Cloudy (Night) 10 KM